Flight Track Log - Related Links

Times and Time Zones

All times are in EDT time to prevent confusion due to time zone crossing. See the AWE1940 flight status page for this flight to view local times or setup timezone preferences in your user account.


Time Position Orientation Groundspeed Altitude Reporting Facility
EDT Latitude Longitude Course Direction KTS MPH feet Rate Location/Type
Mon 10:39:00 PM 35.2137 -80.9491 356° North  Level Estimated
Mon 10:40:00 PM 35.2197 -80.9527 334° Northwest  Level FlightAware Approximate
Mon 10:41:00 PM 35.2256 -80.9563 334° Northwest  Level FlightAware Approximate
Mon 10:42:00 PM 35.2315 -80.9599 334° Northwest  Level FlightAware Approximate
Mon 10:43:00 PM 35.2375 -80.9635 334° Northwest  Level FlightAware Approximate
Mon 10:44:00 PM 35.2434 -80.9672 334° Northwest  Level FlightAware Approximate
Mon 10:45:00 PM 35.2493 -80.9708 334° Northwest  Level FlightAware Approximate
Mon 10:46:00 PM 35.2552 -80.9744 334° Northwest  Level FlightAware Approximate
Mon 10:47:00 PM 35.2612 -80.9780 334° Northwest  Level FlightAware Approximate
Mon 10:48:00 PM 35.2671 -80.9816 334° Northwest  Level FlightAware Approximate
Mon 10:49:00 PM 35.2730 -80.9853 334° Northwest  Level FlightAware Approximate
Mon 10:50:00 PM 35.2790 -80.9889 334° Northwest  Level FlightAware Approximate
Mon 10:51:00 PM 35.2849 -80.9925 334° Northwest  Level FlightAware Approximate
Mon 10:52:00 PM 35.2790 -80.9889 North  Level Estimated
Mon 10:53:00 PM 35.2853 -80.9912 343° North  Level FlightAware Approximate
Mon 10:54:00 PM 35.2916 -80.9936 343° North  Level FlightAware Approximate
Mon 10:55:00 PM 35.2980 -80.9959 343° North  Level FlightAware Approximate
Mon 10:56:00 PM 35.3043 -80.9983 343° North  Level FlightAware Approximate
Mon 10:57:00 PM 35.3107 -81.0006 343° North  Level FlightAware Approximate
Mon 10:58:00 PM 35.3170 -81.0030 343° North  Level FlightAware Approximate
Mon 10:59:00 PM 35.3233 -81.0053 343° North  Level FlightAware Approximate
Mon 11:00:00 PM 35.3297 -81.0077 343° North  Level FlightAware Approximate
Mon 11:01:00 PM 35.3360 -81.0100 343° North  Level FlightAware Approximate
Mon 11:02:00 PM 35.3424 -81.0124 343° North  Level FlightAware Approximate
Mon 11:03:00 PM 35.3487 -81.0147 343° North  Level FlightAware Approximate
Mon 11:04:00 PM 35.3550 -81.0171 343° North  Level FlightAware Approximate
Mon 11:05:00 PM 35.3614 -81.0194 343° North  Level FlightAware Approximate
Mon 11:06:00 PM 35.3677 -81.0218 343° North  Level FlightAware Approximate
Mon 11:07:00 PM 35.3615 -81.0189 North  Level Estimated
Mon 11:08:00 PM 35.3679 -81.0210 344° North  Level FlightAware Approximate
Mon 11:09:00 PM 35.3617 -81.0182 162° South  Level Estimated
Mon 11:10:00 PM 35.3684 -81.0177 North  Level FlightAware Approximate
Mon 11:11:00 PM 35.3750 -81.0172 North  Level FlightAware Approximate
Mon 11:12:00 PM 35.3816 -81.0168 North  Level FlightAware Approximate
Mon 11:13:00 PM 35.3882 -81.0163 North  Level FlightAware Approximate
Mon 11:14:00 PM 35.3816 -81.0168 183° South  Level FlightAware Approximate
Mon 11:15:00 PM 35.3882 -81.0163 North  Level FlightAware Approximate
Mon 11:16:00 PM 35.3816 -81.0168 183° South  Level FlightAware Approximate
Mon 11:17:00 PM 35.3882 -81.0163 North  Level FlightAware Approximate
Mon 11:18:00 PM 35.3816 -81.0168 183° South  Level FlightAware Approximate
Mon 11:19:00 PM 35.3882 -81.0163 North  Level FlightAware Approximate
Mon 11:20:00 PM 35.3816 -81.0168 183° South  Level FlightAware Approximate
Mon 11:21:00 PM 35.3882 -81.0163 North  Level FlightAware Approximate
Mon 11:22:00 PM 35.3816 -81.0168 183° South  Level FlightAware Approximate
Mon 11:23:00 PM 35.3882 -81.0163 North  Level FlightAware Approximate
Mon 11:24:00 PM 35.3816 -81.0168 183° South  Level FlightAware Approximate
Mon 11:25:00 PM 35.3882 -81.0163 North  Level FlightAware Approximate
Mon 11:26:00 PM 35.3816 -81.0168 183° South  Level FlightAware Approximate
Mon 11:27:00 PM 35.3882 -81.0163 North  Level FlightAware Approximate
Mon 11:28:00 PM 35.3816 -81.0168 183° South  Level FlightAware Approximate
Mon 11:29:00 PM 35.3882 -81.0163 North  Level FlightAware Approximate
Mon 11:30:00 PM 35.3816 -81.0168 183° South  Level FlightAware Approximate
Mon 11:31:00 PM 35.3882 -81.0163 North  Level FlightAware Approximate
Mon 11:32:00 PM 35.3816 -81.0168 183° South  Level FlightAware Approximate
Mon 11:33:00 PM 35.3882 -81.0163 North  Level FlightAware Approximate
Mon 11:34:00 PM 35.3816 -81.0168 183° South  Level FlightAware Approximate
Mon 11:35:00 PM 35.3882 -81.0163 North  Level FlightAware Approximate
Mon 11:36:00 PM 35.3799 -81.0150 158° South  Level FlightAware Approximate
Mon 11:37:00 PM 35.3738 -81.0119 158° South  Level FlightAware Approximate
Mon 11:38:00 PM 35.3676 -81.0088 158° South  Level FlightAware Approximate
Mon 11:39:00 PM 35.3615 -81.0057 158° South  Level FlightAware Approximate
Mon 11:40:00 PM 35.3554 -81.0027 158° South  Level FlightAware Approximate
Mon 11:41:00 PM 35.3492 -80.9996 158° South  Level FlightAware Approximate
Mon 11:42:00 PM 35.3431 -80.9965 158° South  Level FlightAware Approximate
Mon 11:43:00 PM 35.3370 -80.9935 158° South  Level FlightAware Approximate
Mon 11:44:00 PM 35.3308 -80.9904 158° South  Level FlightAware Approximate
Mon 11:45:00 PM 35.3247 -80.9874 158° South  Level FlightAware Approximate
Mon 11:46:00 PM 35.3186 -80.9843 158° South  Level FlightAware Approximate
Mon 11:47:00 PM 35.3123 -80.9816 162° South  Level FlightAware Approximate
Mon 11:48:00 PM 35.3060 -80.9791 162° South  Level FlightAware Approximate
Mon 11:49:00 PM 35.2997 -80.9765 162° South  Level FlightAware Approximate
Mon 11:50:00 PM 35.2934 -80.9740 162° South  Level FlightAware Approximate
Mon 11:51:00 PM 35.2871 -80.9715 162° South  Level FlightAware Approximate
Mon 11:52:00 PM 35.2808 -80.9690 162° South  Level FlightAware Approximate
Mon 11:53:00 PM 35.2745 -80.9665 162° South  Level FlightAware Approximate
Mon 11:54:00 PM 35.2682 -80.9640 162° South  Level FlightAware Approximate
Mon 11:55:00 PM 35.2619 -80.9614 162° South  Level FlightAware Approximate
Mon 11:56:00 PM 35.2556 -80.9589 162° South  Level FlightAware Approximate
Mon 11:57:00 PM 35.2493 -80.9564 162° South  Level FlightAware Approximate
Mon 11:58:00 PM 35.2430 -80.9539 162° South  Level FlightAware Approximate
Mon 11:59:00 PM 35.2367 -80.9513 162° South  Level FlightAware Approximate
Tue 12:00:00 AM 35.2305 -80.9486 158° South  Level FlightAware Approximate
Tue 12:01:00 AM 35.2244 -80.9455 158° South  Level FlightAware Approximate
Tue 12:02:00 AM 35.2183 -80.9425 158° South  Level FlightAware Approximate
Tue 12:03:00 AM 35.2121 -80.9394 158° South  Level FlightAware Approximate
Tue 12:04:00 AM 35.2060 -80.9363 158° South  Level FlightAware Approximate
Tue 12:05:00 AM 35.2000 -80.9333 158° South  Level FlightAware Approximate
Tue 12:06:00 AM 35.2048 -80.9389 158° South  Level Estimated
Tue 12:07:00 AM 35.2000 -80.9333 158° South  Level FlightAware Approximate
Tue 12:08:00 AM 35.2048 -80.9389 158° South  Level Estimated
Tue 12:09:00 AM 35.2000 -80.9333 158° South  Level FlightAware Approximate
Tue 12:10:00 AM 35.2048 -80.9389 158° South  Level Estimated
Tue 12:11:00 AM 35.2000 -80.9333 158° South  Level FlightAware Approximate
Tue 12:12:00 AM 35.2048 -80.9389 158° South  Level Estimated
Tue 12:13:00 AM 35.2000 -80.9333 158° South  Level FlightAware Approximate
Tue 12:14:00 AM 35.2048 -80.9389 158° South  Level Estimated
Tue 12:15:00 AM 35.2000 -80.9333 158° South  Level FlightAware Approximate
Tue 12:16:00 AM 35.2048 -80.9389 158° South  Level Estimated
Tue 12:17:00 AM 35.2000 -80.9333 158° South  Level FlightAware Approximate
Tue 12:18:00 AM 35.2048 -80.9389 158° South  Level Estimated
Tue 12:19:00 AM 35.2000 -80.9333 158° South  Level FlightAware Approximate
Tue 12:20:00 AM 35.2048 -80.9389 158° South  Level Estimated
Tue 12:21:00 AM 35.2000 -80.9333 158° South  Level FlightAware Approximate
Tue 12:22:00 AM 35.2048 -80.9389 158° South  Level Estimated

Login

Don't have an account? Register now (free) for customized features, flight alerts, and more!